Latest Coastal Weather Observations for East Sale

IDV60701

Issued at 12:02 pm EST Sunday 25 June 2017 (issued every 10 minutes, with the page automatically refreshed every 10 minutes)

About coastal observations | Map of coastal stations | Coastal observations for VIC | Marine services | Other Formats
Station Details ID: 085072 Name: EAST SALE AIRPORT Lat: -38.12 Lon: 147.13 Height: 4.6 m
Data from the previous 72 hours. | See also: Recent months at East Sale
Date/Time
EST
Temp
°C
Wind Pressure Rain since
9am
mm
Weather Cloud Vis
km
Sea
Height
m
Swell
Dir  Spd
kts
Gust
kts
hPa Trend Height
m
Period
s
Dir
25/11:30am 13.2 WNW 12 17 1015.2 - 0.0 - Cloudy 10 - - - -
25/11:00am 12.3 NW 8 11 1015.6 - 0.0 - Partly cloudy 10 - - - -
25/10:30am 11.2 NNW 8 11 1016.1 - 0.0 - - 10 - - - -
25/10:00am 10.1 NNW 6 8 1016.2 - 0.0 - - 10 - - - -
25/09:30am 7.3 WNW 4 8 1016.2 - 0.0 - Partly cloudy 10 - - - -
25/09:00am 5.9 WNW 3 5 1016.3 F 0.0 - - 10 - - - -
25/08:30am 4.7 NW 5 7 1016.1 - 0.0 - Partly cloudy 10 - - - -
25/08:00am 3.5 NW 6 8 1016.2 - 0.0 - - 10 - - - -
25/07:30am 2.9 NW 7 9 1016.0 - 0.0 - Partly cloudy 10 - - - -
25/07:00am 3.1 NNW 9 11 1015.9 - 0.0 - - 10 - - - -
25/06:30am 2.9 NW 8 11 1015.8 - 0.0 - Partly cloudy 10 - - - -
25/06:00am 3.5 NNW 7 8 1015.8 F 0.0 - - 10 - - - -
25/05:30am 3.1 NNW 7 9 1015.8 - 0.0 - Cloudy 10 - - - -
25/05:00am 2.6 NW 6 7 1015.9 - 0.0 - Cloudy 10 - - - -
25/04:30am 2.2 NNW 6 8 1015.9 - 0.0 - Cloudy 10 - - - -
25/04:00am 2.6 N 6 8 1016.0 - 0.0 - - 10 - - - -
25/03:30am 1.5 NNW 7 8 1016.3 - 0.0 - Partly cloudy 10 - - - -
25/03:00am 1.4 NW 5 6 1016.6 S 0.0 - Partly cloudy 10 - - - -
25/02:30am 1.3 WNW 4 4 1016.6 - 0.0 - - 10 - - - -
25/02:00am 2.4 WNW 4 5 1016.6 - 0.0 - - 10 - - - -
25/01:30am 2.3 WNW 5 7 1016.8 - 0.0 - - 10 - - - -
25/01:00am 1.8 WNW 5 7 1016.7 - 0.0 - - 10 - - - -
25/12:30am 1.3 NNW 5 5 1016.9 - 0.0 - - 10 - - - -
25/12:00am 2.6 W 4 6 1017.0 F 0.0 - - 10 - - - -
 
Date/Time
EST
Temp
°C
Wind Pressure Rain since
9am
mm
Weather Cloud Vis
km
Sea
Height
m
Swell
Dir  Spd
kts
Gust
kts
hPa Trend Height
m
Period
s
Dir
24/11:30pm 3.0 WNW 5 6 1017.0 - 0.0 - - 10 - - - -
24/11:00pm 4.0 NW 6 8 1017.3 - 0.0 - - 10 - - - -
24/10:30pm 4.7 WNW 6 8 1017.5 - 0.0 - - 10 - - - -
24/10:00pm 4.7 WNW 6 8 1017.6 - 0.0 - - 10 - - - -
24/09:30pm 4.8 NW 6 8 1017.7 - 0.0 - - 10 - - - -
24/09:00pm 5.8 NNW 6 7 1017.8 R 0.0 - - 10 - - - -
24/08:30pm 6.5 WNW 7 10 1017.6 - 0.0 - - 10 - - - -
24/08:00pm 6.5 W 8 11 1017.4 - 0.0 - - 10 - - - -
24/07:30pm 6.5 WSW 7 9 1017.4 - 0.0 - - 10 - - - -
24/07:00pm 6.8 WSW 8 10 1017.2 - 0.0 - - 10 - - - -
24/06:30pm 7.2 WSW 10 13 1017.1 - 0.0 - - 10 - - - -
24/06:00pm 8.2 WSW 11 17 1016.9 F 0.0 - - 10 - - - -
24/05:30pm 8.0 WSW 9 13 1016.9 - 0.0 - - 10 - - - -
24/05:00pm 8.8 WSW 8 11 1016.7 - 0.0 - - 10 - - - -
24/04:30pm 9.8 WSW 11 17 1016.7 - 0.0 - - 10 - - - -
24/04:00pm 10.7 W 10 16 1016.6 - 0.0 - - 10 - - - -
24/03:30pm 11.1 W 12 19 1016.5 - 0.0 - - 10 - - - -
24/03:00pm 11.5 W 10 15 1016.4 R 0.0 - Mostly clear 10 - - - -
24/02:30pm 11.2 W 12 16 1016.4 - 0.0 - Partly cloudy 10 - - - -
24/02:00pm 11.1 WSW 13 17 1016.6 - 0.0 - Partly cloudy 10 - - - -
24/01:30pm 10.7 W 12 15 1016.5 - 0.0 - - 10 - - - -
24/01:00pm 11.7 W 11 17 1016.7 - 0.0 - Partly cloudy 10 - - - -
24/12:30pm 10.9 WSW 10 13 1016.9 - 0.0 - - 10 - - - -
24/12:00pm 10.7 W 10 15 1017.3 R 0.0 - Mostly cloudy 10 - - - -
24/11:30am 11.2 WNW 10 14 1017.6 - 0.0 - - 10 - - - -
24/11:00am 10.7 W 11 15 1017.9 - 0.0 - - 10 - - - -
24/10:30am 10.5 W 9 14 1018.2 - 0.0 - - 10 - - - -
24/10:00am 10.1 W 9 12 1018.3 - 0.0 - - 10 - - - -
24/09:30am 9.4 W 7 9 1018.2 - 0.0 - - 10 - - - -
24/09:00am 7.9 WSW 7 9 1017.9 R 1.4 - - 10 - - - -
24/08:30am 7.5 WSW 6 7 1017.6 - 1.4 - - 10 - - - -
24/08:00am 7.0 W 7 9 1017.5 - 1.4 - Partly cloudy 10 - - - -
24/07:30am 6.7 WNW 7 9 1017.0 - 1.4 - - 10 - - - -
24/07:00am 7.0 W 6 8 1016.6 - 1.4 - Partly cloudy 10 - - - -
24/06:30am 7.5 W 7 10 1016.0 - 1.4 - - 10 - - - -
24/06:00am 8.3 W 8 11 1015.6 R 1.4 - - 10 - - - -
24/05:30am 8.5 W 9 13 1015.3 - 1.4 - Partly cloudy 10 - - - -
24/05:00am 8.3 W 9 13 1014.9 - 1.4 - - 10 - - - -
24/04:30am 8.8 WNW 10 13 1014.8 - 1.2 - - 10 - - - -
24/04:00am 9.0 WNW 9 13 1014.6 - 1.2 - - 10 - - - -
24/03:30am 9.1 WNW 8 11 1014.2 - 1.2 - Partly cloudy 10 - - - -
24/03:00am 9.4 WNW 6 8 1014.2 R 1.2 Recent precip. - 10 - - - -
24/02:30am 9.4 W 6 8 1013.8 - 1.2 - Partly cloudy 10 - - - -
24/02:00am 9.7 SW 10 15 1013.6 - 1.0 - Partly cloudy 9 - - - -
24/01:30am 10.1 W 10 14 1013.2 - 0.6 - - 10 - - - -
24/01:00am 10.6 W 11 15 1012.7 - 0.4 - - 10 - - - -
24/12:30am 10.9 W 15 21 1012.7 - 0.4 - Partly cloudy 10 - - - -
24/12:00am 11.1 W 11 16 1012.5 R 0.2 Recent precip. - 10 - - - -
 
Date/Time
EST
Temp
°C
Wind Pressure Rain since
9am
mm
Weather Cloud Vis
km
Sea
Height
m
Swell
Dir  Spd
kts
Gust
kts
hPa Trend Height
m
Period
s
Dir
23/11:30pm 11.5 WNW 8 10 1012.3 - 0.0 - Cloudy 10 - - - -
23/11:00pm 11.2 WNW 10 12 1012.2 - 0.0 - Cloudy 10 - - - -
23/10:30pm 11.0 NW 12 16 1012.1 - 0.0 - Partly cloudy 10 - - - -
23/10:00pm 10.7 NW 13 16 1011.9 - 0.0 - - 10 - - - -
23/09:30pm 10.9 NW 12 15 1011.9 - 0.0 - - 10 - - - -
23/09:00pm 11.0 NW 10 13 1012.0 F 0.0 - - 10 - - - -
23/08:30pm 10.7 NW 10 11 1012.1 - 0.0 - Partly cloudy 10 - - - -
23/08:00pm 11.7 NW 9 13 1012.4 - 0.0 - - 10 - - - -
23/07:30pm 12.2 NW 13 17 1012.0 - 0.0 - - 10 - - - -
23/07:00pm 11.6 NW 10 13 1011.6 - 0.0 - - 10 - - - -
23/06:30pm 11.9 NW 11 14 1011.7 - 0.0 - Partly cloudy 10 - - - -
23/06:00pm 12.3 NW 15 21 1011.7 F 0.0 - Mostly cloudy 10 - - - -
23/05:42pm 12.4 NW 14 21 1011.5 - 0.0 - Partly cloudy 10 - - - -
23/05:30pm 11.7 NNW 7 11 1011.6 - 0.0 - - 10 - - - -
23/05:00pm 11.6 NNW 9 11 1011.9 - 0.0 - - 10 - - - -
23/04:30pm 12.7 NNW 11 14 1012.0 - 0.0 - - - - - - -
23/04:00pm 13.9 NNW 14 19 1011.8 - 0.0 - - 10 - - - -
23/03:30pm 14.6 NW 18 24 1012.0 - 0.0 - - 10 - - - -
23/03:00pm 15.4 NW 18 25 1012.2 F 0.0 - Partly cloudy 10 - - - -
23/02:30pm 15.4 NW 17 22 1012.6 - 0.0 - Mostly clear 10 - - - -
23/02:00pm 15.6 NW 17 24 1013.1 - 0.0 - Mostly clear 10 - - - -
23/01:30pm 15.6 WNW 16 23 1013.6 - 0.0 - Mostly clear 10 - - - -
23/01:00pm 15.8 WNW 15 21 1014.1 - 0.0 - Mostly clear 10 - - - -
23/12:30pm 15.0 NW 13 17 1014.6 - 0.0 - Mostly clear 10 - - - -
23/12:00pm 14.0 NW 12 14 1015.3 F 0.0 - Mostly clear 10 - - - -
23/11:30am 13.5 WNW 11 16 1016.1 - 0.0 - Mostly clear 10 - - - -
23/11:00am 12.8 NW 10 13 1016.5 - 0.0 - Mostly clear 10 - - - -
23/10:30am 11.6 WNW 7 9 1017.4 - 0.0 - Mostly clear 10 - - - -
23/10:00am 10.7 NW 6 8 1017.9 - 0.0 - Mostly clear 10 - - - -
23/09:30am 8.1 NW 4 6 1018.3 - 0.0 - - 10 - - - -
23/09:00am 6.0 WSW 4 5 1018.5 F 0.0 - - 10 - - - -
23/08:30am 3.8 NW 5 6 1018.4 - 0.0 - - 10 - - - -
23/08:00am 2.7 NNW 4 5 1018.6 - 0.0 - - 10 - - - -
23/07:30am 2.5 NW 4 4 1018.5 - 0.0 - - 10 - - - -
23/07:00am 3.6 NNW 5 6 1018.6 - 0.0 - - 10 - - - -
23/06:30am 3.6 NW 6 6 1018.4 - 0.0 - - 10 - - - -
23/06:00am 3.0 WNW 7 9 1018.7 F 0.0 - Cloudy 10 - - - -
23/05:30am 3.0 NW 6 7 1018.4 - 0.0 - - 10 - - - -
23/05:00am 3.1 NW 6 8 1018.8 - 0.0 - - 10 - - - -
23/04:30am 3.2 NW 6 7 1019.2 - 0.0 - - 10 - - - -
23/04:00am 3.3 NW 6 7 1019.6 - 0.0 - - 10 - - - -
23/03:30am 3.5 NW 5 6 1019.7 - 0.0 - - 10 - - - -
23/03:00am 3.9 NW 5 6 1020.1 F 0.0 - Cloudy 10 - - - -
23/02:30am 4.6 NW 6 7 1020.5 - 0.0 - - 10 - - - -
23/02:00am 4.9 NW 8 9 1020.8 - 0.0 - - 10 - - - -
23/01:30am 5.0 NW 6 7 1021.1 - 0.0 - - 10 - - - -
23/01:00am 5.3 NW 6 8 1021.1 - 0.0 - - 10 - - - -
23/12:30am 5.4 NW 6 6 1021.3 - 0.0 - - 10 - - - -
23/12:00am 6.3 NW 5 7 1021.9 F 0.0 - - 10 - - - -
 
Date/Time
EST
Temp
°C
Wind Pressure Rain since
9am
mm
Weather Cloud Vis
km
Sea
Height
m
Swell
Dir  Spd
kts
Gust
kts
hPa Trend Height
m
Period
s
Dir
22/11:30pm 6.6 NW 5 7 1022.3 - 0.0 - - 10 - - - -
22/11:00pm 6.3 NW 5 6 1022.7 - 0.0 - Cloudy 10 - - - -
22/10:30pm 5.7 WSW 3 4 1023.0 - 0.0 - - 10 - - - -
22/10:00pm 6.0 SSW 4 5 1023.2 - 0.0 - Cloudy 10 - - - -
22/09:30pm 5.8 NNW 5 5 1023.2 - 0.0 - Cloudy 10 - - - -
22/09:00pm 4.2 W 3 3 1023.5 F 0.0 - Cloudy 10 - - - -
22/08:30pm 5.1 WSW 4 5 1023.7 - 0.0 - - 10 - - - -
22/08:00pm 4.8 N 4 5 1023.8 - 0.0 - - 10 - - - -
22/07:30pm 4.2 NW 1 5 1023.9 - 0.0 - - 10 - - - -
22/07:00pm 4.6 CALM 0 0 1024.2 - 0.0 - - 10 - - - -
22/06:30pm 6.3 NNE 4 6 1023.9 - 0.0 - - 10 - - - -
22/06:00pm 6.9 N 2 3 1024.0 F 0.0 - - 10 - - - -
22/05:30pm 8.1 NNE 3 4 1024.2 - 0.0 - - 10 - - - -
22/05:00pm 10.1 CALM 0 0 1024.2 - 0.0 - - 10 - - - -
22/04:30pm 12.0 WSW 2 3 1024.4 - 0.0 - - 10 - - - -
22/04:00pm 13.0 W 3 5 1024.7 - 0.0 - - 10 - - - -
22/03:30pm 13.5 SW 7 9 1024.9 - 0.0 - Cloudy 10 - - - -
22/03:00pm 13.5 SW 6 8 1024.9 F 0.0 - Mostly cloudy 10 - - - -
22/02:30pm 13.2 W 6 8 1025.1 - 0.0 - Mostly clear 10 - - - -
22/02:00pm 13.4 WNW 6 8 1025.1 - 0.0 - Mostly clear 10 - - - -
22/01:30pm 12.9 W 7 10 1025.7 - 0.0 - Mostly clear 10 - - - -
22/01:00pm 13.2 WNW 8 11 1026.2 - 0.0 - Mostly clear 10 - - - -
22/12:30pm 12.8 WNW 6 7 1026.7 - 0.0 - Mostly clear 10 - - - -

Other Formats:

Comma delimited format used in spreadsheet applications
http://www.bom.gov.au/fwo/IDV60701/IDV60701.94907.axf

JavaScript Object Notation format (JSON) in row-major order
http://www.bom.gov.au/fwo/IDV60701/IDV60701.94907.json